createdAt,value
2018-02-16T00:02:05.042Z,15.57
2018-02-16T00:04:32.599Z,15.57
2018-02-16T00:07:00.855Z,16.13
2018-02-16T00:09:29.121Z,15.52
2018-02-16T00:11:56.617Z,15.63
2018-02-16T00:14:24.179Z,16.42
2018-02-16T00:16:51.728Z,15.32
2018-02-16T00:19:19.254Z,15.87
2018-02-16T00:21:47.510Z,15.70
2018-02-16T00:24:15.019Z,15.43
2018-02-16T00:26:42.602Z,14.63
2018-02-16T00:29:10.098Z,15.88
2018-02-16T00:31:37.707Z,16.00
2018-02-16T00:34:05.206Z,16.70
2018-02-16T00:36:32.706Z,16.70
2018-02-16T00:39:00.979Z,17.40
2018-02-16T00:41:29.268Z,17.20
2018-02-16T00:43:57.544Z,17.40
2018-02-16T00:46:25.811Z,17.53
2018-02-16T00:48:54.097Z,17.83
2018-02-16T00:51:22.363Z,19.30
2018-02-16T00:53:50.692Z,18.05
2018-02-16T00:56:18.207Z,19.03
2018-02-16T00:58:46.477Z,18.62
2018-02-16T01:01:14.742Z,20.63
2018-02-16T01:03:42.258Z,20.03
2018-02-16T01:06:09.769Z,20.15
2018-02-16T01:08:38.100Z,20.90
2018-02-16T01:11:05.623Z,21.20
2018-02-16T01:13:33.192Z,21.65
2018-02-16T01:16:00.699Z,20.58
2018-02-16T01:18:28.193Z,21.57
2018-02-16T01:20:56.463Z,21.83
2018-02-16T01:23:24.044Z,21.35
2018-02-16T01:25:51.607Z,21.07
2018-02-16T01:28:19.167Z,22.05
2018-02-16T01:30:46.667Z,22.87
2018-02-16T01:33:14.173Z,21.53
2018-02-16T01:35:41.739Z,21.08
2018-02-16T01:38:09.311Z,21.65
2018-02-16T01:40:36.854Z,21.48
2018-02-16T01:43:04.371Z,20.80
2018-02-16T01:45:31.871Z,21.52
2018-02-16T01:48:00.140Z,21.97
2018-02-16T01:50:28.395Z,21.97
2018-02-16T01:52:56.710Z,22.10
2018-02-16T01:55:24.212Z,23.43
2018-02-16T01:57:51.830Z,21.45
2018-02-16T02:00:19.386Z,23.57
2018-02-16T02:02:46.897Z,22.62
2018-02-16T02:05:14.499Z,21.87
2018-02-16T02:07:42.011Z,22.30
2018-02-16T02:10:09.504Z,23.53
2018-02-16T02:12:37.787Z,23.57
2018-02-16T02:15:06.084Z,21.73
2018-02-16T02:17:33.593Z,23.13
2018-02-16T02:20:01.192Z,22.17
2018-02-16T02:22:28.748Z,22.40
2018-02-16T02:24:56.252Z,21.80
2018-02-16T02:27:24.464Z,22.67
2018-02-16T02:29:51.948Z,23.10
2018-02-16T02:32:19.478Z,23.60
2018-02-16T02:34:46.982Z,21.73
2018-02-16T02:37:14.493Z,22.57
2018-02-16T02:39:41.992Z,22.30
2018-02-16T02:42:09.495Z,21.97
2018-02-16T02:44:37.117Z,22.57
2018-02-16T02:47:04.611Z,22.10
2018-02-16T02:49:32.229Z,21.92
2018-02-16T02:51:59.749Z,22.43
2018-02-16T02:54:28.032Z,21.80
2018-02-16T02:56:56.332Z,21.20
2018-02-16T02:59:23.896Z,22.43
2018-02-16T03:01:51.380Z,22.07
2018-02-16T03:04:18.899Z,21.33
2018-02-16T03:06:47.175Z,21.67
2018-02-16T03:09:15.465Z,22.53
2018-02-16T03:11:42.958Z,21.50
2018-02-16T03:14:10.475Z,22.43
2018-02-16T03:16:37.976Z,21.77
2018-02-16T03:19:05.491Z,22.90
2018-02-16T03:21:32.987Z,23.17
2018-02-16T03:24:00.499Z,24.37
2018-02-16T03:26:28.009Z,23.23
2018-02-16T03:28:55.523Z,23.43
2018-02-16T03:31:23.793Z,23.70
2018-02-16T03:33:52.075Z,23.30
2018-02-16T03:36:20.352Z,22.97
2018-02-16T03:38:48.624Z,24.25
2018-02-16T03:41:16.908Z,23.37
2018-02-16T03:43:45.176Z,23.63
2018-02-16T03:46:13.438Z,23.27
2018-02-16T03:48:40.948Z,23.73
2018-02-16T03:51:08.499Z,23.27
2018-02-16T03:53:35.998Z,23.30
2018-02-16T03:56:03.484Z,24.03
2018-02-16T03:58:31.770Z,23.37
2018-02-16T04:01:00.038Z,24.43
2018-02-16T04:03:27.598Z,24.90
2018-02-16T04:05:55.887Z,23.33
2018-02-16T04:08:23.400Z,24.33
2018-02-16T04:10:50.903Z,24.30
2018-02-16T04:13:18.412Z,23.30
2018-02-16T04:15:45.920Z,24.63
2018-02-16T04:18:13.479Z,24.60
2018-02-16T04:20:41.038Z,24.77
2018-02-16T04:23:08.547Z,24.03
2018-02-16T04:25:36.053Z,24.13
2018-02-16T04:28:03.562Z,24.17
2018-02-16T04:30:31.071Z,24.03
2018-02-16T04:32:58.648Z,24.65
2018-02-16T04:35:26.139Z,24.00
2018-02-16T04:37:53.640Z,24.53
2018-02-16T04:40:21.147Z,25.10
2018-02-16T04:42:48.655Z,23.70
2018-02-16T04:45:16.164Z,23.87
2018-02-16T04:47:43.684Z,23.03
2018-02-16T04:50:11.942Z,24.67
2018-02-16T04:52:40.239Z,25.07
2018-02-16T04:55:08.479Z,25.03
2018-02-16T04:57:35.979Z,25.90
2018-02-16T05:00:03.560Z,26.57
2018-02-16T05:02:31.113Z,25.27
2018-02-16T05:04:58.747Z,26.83
2018-02-16T05:07:27.020Z,25.83
2018-02-16T05:09:55.299Z,27.70
2018-02-16T05:12:22.867Z,28.92
2018-02-16T05:14:51.119Z,28.13
2018-02-16T05:17:19.393Z,27.17
2018-02-16T05:19:47.696Z,26.57
2018-02-16T05:22:15.224Z,25.90
2018-02-16T05:24:42.811Z,25.27
2018-02-16T05:27:11.098Z,25.67
2018-02-16T05:29:38.599Z,25.35
2018-02-16T05:32:06.156Z,26.20
2018-02-16T05:34:33.637Z,27.20
2018-02-16T05:37:01.956Z,26.33
2018-02-16T05:39:29.453Z,26.10
2018-02-16T05:41:56.951Z,26.30
2018-02-16T05:44:25.216Z,26.17
2018-02-16T05:46:52.715Z,28.03
2018-02-16T05:49:20.261Z,26.83
2018-02-16T05:51:47.780Z,26.70
2018-02-16T05:54:15.431Z,26.67
2018-02-16T05:56:43.764Z,27.20
2018-02-16T05:59:11.319Z,27.42
2018-02-16T06:01:38.833Z,27.65
2018-02-16T06:04:07.160Z,28.90
2018-02-16T06:06:34.670Z,27.90
2018-02-16T06:09:02.222Z,26.77
2018-02-16T06:11:29.735Z,28.65
2018-02-16T06:13:57.244Z,28.17
2018-02-16T06:16:24.779Z,27.48
2018-02-16T06:18:52.274Z,28.00
2018-02-16T06:21:20.709Z,26.03
2018-02-16T06:23:48.238Z,28.45
2018-02-16T06:26:16.492Z,28.45
2018-02-16T06:28:44.767Z,29.83
2018-02-16T06:31:13.054Z,28.80
2018-02-16T06:33:41.320Z,29.30
2018-02-16T06:36:08.935Z,30.20
2018-02-16T06:38:36.527Z,28.92
2018-02-16T06:41:04.051Z,27.83
2018-02-16T06:43:31.540Z,29.58
2018-02-16T06:45:59.075Z,29.17
2018-02-16T06:48:26.592Z,29.45
2018-02-16T06:50:54.875Z,30.02
2018-02-16T06:53:22.391Z,30.10
2018-02-16T06:55:49.911Z,29.40
2018-02-16T06:58:17.455Z,30.52
2018-02-16T07:00:44.952Z,37.75
2018-02-16T07:03:12.455Z,28.73
2018-02-16T07:05:40.741Z,28.23
2018-02-16T07:08:08.263Z,28.33
2018-02-16T07:10:35.839Z,29.77
2018-02-16T07:13:03.527Z,30.25
2018-02-16T07:15:31.129Z,30.25
2018-02-16T07:17:59.504Z,30.55
2018-02-16T07:20:27.032Z,29.77
2018-02-16T07:22:54.822Z,28.95
2018-02-16T07:25:22.391Z,28.75
2018-02-16T07:27:49.925Z,29.20
2018-02-16T07:30:17.471Z,27.37
2018-02-16T07:32:45.171Z,28.12
2018-02-16T07:35:12.751Z,28.17
2018-02-16T07:37:40.301Z,27.45
2018-02-16T07:40:07.877Z,28.33
2018-02-16T07:42:35.383Z,27.98
2018-02-16T07:45:02.954Z,28.08
2018-02-16T07:47:30.490Z,27.95
2018-02-16T07:49:58.014Z,27.10
2018-02-16T07:52:25.677Z,26.67
2018-02-16T07:54:53.321Z,27.60
2018-02-16T07:57:20.831Z,27.70
2018-02-16T07:59:48.421Z,25.80
2018-02-16T08:02:17.863Z,27.13
2018-02-16T08:04:46.227Z,26.57
2018-02-16T08:07:13.816Z,25.57
2018-02-16T08:09:42.243Z,24.67
2018-02-16T08:12:09.743Z,23.90
2018-02-16T08:14:37.362Z,24.73
2018-02-16T08:17:04.859Z,23.17
2018-02-16T08:19:32.371Z,23.67
2018-02-16T08:21:59.918Z,22.50
2018-02-16T08:24:27.602Z,22.90
2018-02-16T08:26:55.106Z,22.53
2018-02-16T08:29:22.703Z,21.27
2018-02-16T08:31:50.230Z,21.73
2018-02-16T08:34:19.235Z,21.07
2018-02-16T08:36:47.530Z,21.00
2018-02-16T08:39:15.089Z,20.77
2018-02-16T08:41:42.614Z,20.07
2018-02-16T08:44:11.621Z,20.57
2018-02-16T08:46:40.026Z,19.30
2018-02-16T08:49:07.544Z,18.67
2018-02-16T08:51:35.036Z,18.70
2018-02-16T08:54:03.887Z,18.33
2018-02-16T08:56:31.381Z,17.93
2018-02-16T08:58:59.651Z,19.80
2018-02-16T09:01:27.908Z,18.97
2018-02-16T09:03:55.421Z,16.77
2018-02-16T09:06:22.932Z,18.10
2018-02-16T09:08:50.426Z,17.43
2018-02-16T09:11:17.969Z,16.77
2018-02-16T09:13:45.557Z,17.73
2018-02-16T09:16:13.097Z,15.93
2018-02-16T09:18:40.658Z,16.33
2018-02-16T09:21:08.217Z,15.57
2018-02-16T09:23:35.724Z,15.30
2018-02-16T09:26:03.227Z,14.90
2018-02-16T09:28:31.512Z,14.90
2018-02-16T09:30:59.811Z,14.93
2018-02-16T09:33:30.802Z,15.17
2018-02-16T09:35:59.071Z,13.97
2018-02-16T09:38:26.573Z,14.30
2018-02-16T09:40:54.073Z,13.30
2018-02-16T09:43:21.576Z,13.70
2018-02-16T09:45:49.830Z,12.70
2018-02-16T09:48:17.437Z,13.17
2018-02-16T09:50:44.951Z,14.37
2018-02-16T09:53:13.230Z,12.40
2018-02-16T09:55:41.518Z,12.23
2018-02-16T09:58:09.804Z,12.03
2018-02-16T10:00:38.072Z,12.70
2018-02-16T10:03:06.378Z,11.70
2018-02-16T10:05:33.915Z,10.80
2018-02-16T10:08:02.208Z,12.30
2018-02-16T10:10:29.753Z,11.13
2018-02-16T10:12:58.031Z,11.77
2018-02-16T10:15:26.292Z,10.37
2018-02-16T10:17:54.567Z,11.57
2018-02-16T10:20:22.857Z,11.63
2018-02-16T10:22:51.116Z,11.20
2018-02-16T10:25:20.383Z,26.13
2018-02-16T10:27:48.104Z,20.27
2018-02-16T10:30:16.367Z,30.47
2018-02-16T10:32:47.027Z,11.80
2018-02-16T10:35:14.599Z,13.10
2018-02-16T10:37:42.136Z,14.23
2018-02-16T10:40:09.706Z,12.77
2018-02-16T10:42:37.252Z,13.93
2018-02-16T10:45:04.750Z,11.20
2018-02-16T10:47:32.368Z,11.90
2018-02-16T10:49:59.861Z,9.93
2018-02-16T10:52:27.376Z,9.37
2018-02-16T10:54:55.676Z,10.20
2018-02-16T10:57:23.175Z,10.13
2018-02-16T10:59:50.728Z,9.30
2018-02-16T11:02:23.972Z,10.23
2018-02-16T11:04:57.238Z,9.30
2018-02-16T11:07:30.407Z,9.53
2018-02-16T11:09:57.937Z,10.00
2018-02-16T11:12:25.446Z,9.73
2018-02-16T11:14:53.725Z,10.13
2018-02-16T11:17:21.278Z,8.50
2018-02-16T11:19:48.771Z,8.67
2018-02-16T11:22:16.276Z,8.97
2018-02-16T11:24:43.779Z,7.90
2018-02-16T11:27:12.059Z,8.20
2018-02-16T11:29:40.318Z,8.33
2018-02-16T11:32:08.629Z,7.77
2018-02-16T11:34:36.240Z,8.40
2018-02-16T11:37:03.828Z,8.80
2018-02-16T11:39:33.096Z,9.13
2018-02-16T11:42:00.706Z,9.03
2018-02-16T11:44:28.256Z,9.23
2018-02-16T11:46:55.791Z,9.97
2018-02-16T11:49:23.324Z,8.40
2018-02-16T11:51:50.850Z,6.40
2018-02-16T11:54:18.363Z,6.53
2018-02-16T11:56:45.863Z,6.50
2018-02-16T11:59:13.371Z,6.43
2018-02-16T12:01:40.896Z,6.10
2018-02-16T12:04:08.378Z,6.00
2018-02-16T12:06:35.880Z,6.40
2018-02-16T12:09:03.375Z,6.13
2018-02-16T12:11:30.871Z,6.23
2018-02-16T12:13:58.362Z,7.20
2018-02-16T12:16:25.868Z,6.40
2018-02-16T12:18:53.394Z,6.00
2018-02-16T12:21:20.898Z,5.67
2018-02-16T12:23:48.424Z,6.30
2018-02-16T12:26:15.930Z,5.33
2018-02-16T12:28:43.527Z,5.60
2018-02-16T12:31:11.069Z,5.10
2018-02-16T12:33:38.775Z,5.50
2018-02-16T12:36:06.259Z,5.90
2018-02-16T12:38:33.842Z,5.43
2018-02-16T12:41:02.132Z,5.87
2018-02-16T12:43:30.367Z,6.07
2018-02-16T12:45:57.859Z,6.07
2018-02-16T12:48:26.169Z,5.73
2018-02-16T12:50:53.690Z,6.70
2018-02-16T12:53:21.943Z,6.47
2018-02-16T12:55:49.525Z,6.03
2018-02-16T12:58:17.823Z,6.43
2018-02-16T13:00:45.322Z,6.57
2018-02-16T13:03:12.813Z,6.73
2018-02-16T13:05:41.087Z,6.60
2018-02-16T13:08:09.729Z,6.70
2018-02-16T13:10:37.350Z,6.80
2018-02-16T13:13:05.607Z,7.00
2018-02-16T13:15:33.124Z,7.17
2018-02-16T13:18:01.441Z,7.07
2018-02-16T13:20:28.951Z,7.63
2018-02-16T13:22:56.463Z,8.07
2018-02-16T13:25:24.735Z,8.57
2018-02-16T13:27:52.313Z,8.20
2018-02-16T13:30:20.582Z,8.03
2018-02-16T13:32:48.856Z,8.50
2018-02-16T13:35:17.276Z,7.90
2018-02-16T13:37:44.773Z,8.43
2018-02-16T13:40:12.364Z,8.50
2018-02-16T13:42:41.497Z,8.00
2018-02-16T13:45:08.988Z,7.57
2018-02-16T13:47:36.519Z,7.23
2018-02-16T13:50:04.017Z,7.57
2018-02-16T13:52:32.320Z,7.70
2018-02-16T13:55:00.611Z,7.43
2018-02-16T13:57:28.284Z,8.30
2018-02-16T13:59:55.809Z,8.57
2018-02-16T14:02:24.081Z,7.73
2018-02-16T14:04:52.359Z,9.07
2018-02-16T14:07:20.624Z,9.03
2018-02-16T14:09:48.109Z,9.40
2018-02-16T14:12:15.616Z,9.77
2018-02-16T14:14:43.091Z,8.93
2018-02-16T14:17:10.599Z,9.33
2018-02-16T14:19:38.149Z,9.53
2018-02-16T14:22:05.706Z,9.90
2018-02-16T14:24:33.268Z,9.90
2018-02-16T14:27:01.034Z,9.37
2018-02-16T14:29:28.574Z,9.57
2018-02-16T14:31:56.834Z,9.57
2018-02-16T14:34:24.412Z,10.07
2018-02-16T14:36:52.663Z,9.60
2018-02-16T14:39:20.246Z,9.43
2018-02-16T14:41:48.527Z,10.20
2018-02-16T14:44:16.841Z,10.97
2018-02-16T14:46:44.420Z,9.93
2018-02-16T14:49:12.968Z,9.93
2018-02-16T14:51:40.488Z,9.90
2018-02-16T14:54:08.023Z,9.87
2018-02-16T14:56:35.606Z,9.50
2018-02-16T14:59:03.902Z,10.23
2018-02-16T15:01:31.469Z,10.20
2018-02-16T15:03:59.182Z,10.30
2018-02-16T15:06:26.803Z,10.20
2018-02-16T15:08:54.360Z,9.90
2018-02-16T15:11:21.899Z,9.53
2018-02-16T15:13:50.152Z,9.73
2018-02-16T15:16:18.318Z,8.90
2018-02-16T15:18:45.807Z,8.10
2018-02-16T15:21:14.079Z,8.27
2018-02-16T15:23:42.371Z,8.33
2018-02-16T15:26:10.635Z,7.70
2018-02-16T15:28:38.944Z,7.30
2018-02-16T15:31:06.454Z,6.97
2018-02-16T15:33:33.943Z,9.37
2018-02-16T15:36:01.499Z,7.57
2018-02-16T15:38:29.750Z,7.17
2018-02-16T15:40:57.314Z,7.60
2018-02-16T15:43:24.810Z,7.40
2018-02-16T15:45:52.306Z,7.20
2018-02-16T15:48:19.789Z,7.63
2018-02-16T15:50:48.010Z,6.97
2018-02-16T15:53:15.543Z,7.07
2018-02-16T15:55:43.055Z,7.33
2018-02-16T15:58:10.540Z,7.70
2018-02-16T16:00:38.028Z,6.20
2018-02-16T16:03:05.581Z,6.00
2018-02-16T16:05:33.083Z,6.20
2018-02-16T16:08:00.589Z,6.07
2018-02-16T16:10:28.858Z,5.77
2018-02-16T16:12:56.371Z,6.50
2018-02-16T16:15:23.866Z,5.90
2018-02-16T16:17:51.356Z,5.33
2018-02-16T16:20:18.874Z,5.43
2018-02-16T16:22:46.428Z,13.37
2018-02-16T16:25:14.019Z,6.37
2018-02-16T16:27:41.547Z,5.80
2018-02-16T16:30:09.867Z,6.00
2018-02-16T16:32:37.338Z,5.50
2018-02-16T16:35:04.835Z,5.53
2018-02-16T16:37:32.335Z,5.50
2018-02-16T16:40:00.591Z,4.93
2018-02-16T16:42:28.074Z,5.23
2018-02-16T16:44:55.565Z,5.20
2018-02-16T16:47:23.093Z,5.07
2018-02-16T16:49:50.595Z,5.03
2018-02-16T16:52:18.094Z,5.23
2018-02-16T16:54:46.352Z,5.90
2018-02-16T16:57:13.844Z,6.50
2018-02-16T16:59:41.350Z,6.00
2018-02-16T17:02:08.977Z,6.50
2018-02-16T17:04:36.491Z,6.23
2018-02-16T17:07:04.031Z,6.67
2018-02-16T17:09:31.517Z,7.77
2018-02-16T17:11:59.079Z,7.10
2018-02-16T17:14:27.374Z,6.60
2018-02-16T17:16:54.858Z,8.20
2018-02-16T17:19:22.353Z,7.93
2018-02-16T17:21:50.392Z,7.50
2018-02-16T17:24:17.938Z,6.97
2018-02-16T17:26:45.423Z,7.20
2018-02-16T17:29:12.922Z,7.97
2018-02-16T17:31:41.202Z,8.00
2018-02-16T17:34:09.504Z,8.17
2018-02-16T17:36:37.012Z,7.90
2018-02-16T17:39:04.507Z,7.83
2018-02-16T17:41:32.771Z,8.73
2018-02-16T17:44:01.051Z,8.13
2018-02-16T17:46:29.346Z,8.43
2018-02-16T17:48:57.642Z,8.90
2018-02-16T17:51:25.332Z,9.10
2018-02-16T17:53:52.957Z,9.70
2018-02-16T17:56:20.487Z,9.37
2018-02-16T17:58:48.795Z,10.93
2018-02-16T18:01:16.318Z,11.63
2018-02-16T18:03:44.615Z,10.83
2018-02-16T18:06:12.216Z,10.43
2018-02-16T18:08:39.675Z,9.43
2018-02-16T18:11:07.156Z,9.77
2018-02-16T18:13:34.650Z,9.33
2018-02-16T18:16:03.179Z,10.10
2018-02-16T18:18:30.666Z,12.50
2018-02-16T18:20:58.936Z,11.20
2018-02-16T18:23:26.432Z,12.03
2018-02-16T18:25:53.997Z,10.93
2018-02-16T18:28:21.511Z,12.07
2018-02-16T18:30:49.829Z,10.97
2018-02-16T18:33:17.339Z,11.53
2018-02-16T18:35:45.598Z,10.73
2018-02-16T18:38:13.202Z,10.90
2018-02-16T18:40:41.481Z,11.30
2018-02-16T18:43:09.056Z,11.23
2018-02-16T18:45:36.603Z,11.60
2018-02-16T18:48:04.159Z,11.38
2018-02-16T18:50:31.719Z,11.47
2018-02-16T18:52:59.276Z,11.35
2018-02-16T18:55:26.834Z,11.98
2018-02-16T18:57:55.095Z,11.05
2018-02-16T19:00:22.604Z,11.13
2018-02-16T19:02:50.137Z,11.48
2018-02-16T19:05:17.692Z,9.82
2018-02-16T19:07:45.942Z,10.48
2018-02-16T19:10:13.452Z,10.98
2018-02-16T19:12:40.982Z,9.98
2018-02-16T19:15:09.250Z,10.88
2018-02-16T19:17:37.525Z,12.90
2018-02-16T19:20:05.063Z,12.30
2018-02-16T19:22:32.668Z,11.88
2018-02-16T19:25:00.218Z,10.55
2018-02-16T19:27:28.513Z,10.50
2018-02-16T19:29:56.138Z,10.33
2018-02-16T19:32:24.438Z,10.43
2018-02-16T19:34:51.948Z,11.02
2018-02-16T19:37:19.449Z,10.70
2018-02-16T19:39:47.791Z,11.12
2018-02-16T19:42:16.867Z,10.88
2018-02-16T19:44:44.408Z,10.57
2018-02-16T19:47:11.967Z,11.30
2018-02-16T19:49:39.549Z,11.05
2018-02-16T19:52:07.163Z,11.15
2018-02-16T19:54:35.469Z,10.68
2018-02-16T19:57:02.963Z,11.45
2018-02-16T19:59:30.585Z,11.60
2018-02-16T20:01:58.082Z,11.77
2018-02-16T20:04:25.612Z,11.93
2018-02-16T20:06:53.122Z,11.98
2018-02-16T20:09:21.447Z,11.90
2018-02-16T20:11:48.953Z,11.68
2018-02-16T20:14:17.347Z,12.13
2018-02-16T20:16:45.716Z,11.32
2018-02-16T20:19:13.336Z,13.23
2018-02-16T20:21:40.834Z,11.57
2018-02-16T20:24:09.114Z,11.85
2018-02-16T20:26:37.374Z,11.40
2018-02-16T20:29:04.903Z,11.20
2018-02-16T20:31:33.053Z,12.43
2018-02-16T20:34:00.564Z,10.82
2018-02-16T20:36:28.285Z,12.30
2018-02-16T20:38:55.820Z,11.18
2018-02-16T20:41:24.132Z,11.52
2018-02-16T20:43:52.452Z,12.32
2018-02-16T20:46:20.013Z,12.57
2018-02-16T20:48:47.515Z,12.73
2018-02-16T20:51:15.037Z,13.38
2018-02-16T20:53:43.294Z,13.38
2018-02-16T20:56:11.004Z,13.27
2018-02-16T20:58:38.512Z,13.93
2018-02-16T21:01:06.168Z,13.30
2018-02-16T21:03:33.708Z,13.20
2018-02-16T21:06:01.228Z,12.57
2018-02-16T21:08:29.499Z,11.88
2018-02-16T21:10:57.780Z,12.63
2018-02-16T21:13:25.306Z,13.18
2018-02-16T21:15:53.595Z,12.00
2018-02-16T21:18:21.872Z,13.10
2018-02-16T21:20:50.167Z,12.10
2018-02-16T21:23:18.427Z,11.70
2018-02-16T21:25:46.720Z,17.02
2018-02-16T21:28:14.307Z,14.43
2018-02-16T21:30:41.791Z,14.48
2018-02-16T21:33:09.308Z,14.15
2018-02-16T21:35:36.793Z,12.80
2018-02-16T21:38:04.299Z,12.52
2018-02-16T21:40:32.603Z,12.98
2018-02-16T21:43:00.164Z,15.63
2018-02-16T21:45:27.725Z,13.05
2018-02-16T21:47:55.267Z,13.40
2018-02-16T21:50:23.569Z,13.32
2018-02-16T21:52:51.168Z,12.95
2018-02-16T21:55:18.679Z,13.90
2018-02-16T21:57:46.178Z,13.77
2018-02-16T22:00:13.714Z,13.52
2018-02-16T22:02:41.227Z,13.85
2018-02-16T22:05:09.578Z,13.98
2018-02-16T22:07:37.419Z,14.48
2018-02-16T22:10:05.097Z,13.75
2018-02-16T22:12:32.765Z,15.23
2018-02-16T22:15:00.501Z,13.98
2018-02-16T22:17:28.151Z,14.50
2018-02-16T22:19:55.656Z,14.45
2018-02-16T22:22:23.161Z,14.43
2018-02-16T22:24:50.651Z,15.38
2018-02-16T22:27:19.071Z,14.82
2018-02-16T22:29:47.328Z,14.82
2018-02-16T22:32:14.841Z,15.15
2018-02-16T22:34:42.505Z,14.82
2018-02-16T22:37:11.421Z,15.55
2018-02-16T22:39:38.971Z,16.73
2018-02-16T22:42:06.570Z,16.12
2018-02-16T22:44:34.269Z,14.35
2018-02-16T22:47:01.964Z,15.02
2018-02-16T22:49:29.538Z,14.75
2018-02-16T22:51:57.894Z,14.73
2018-02-16T22:54:25.563Z,14.45
2018-02-16T22:56:53.084Z,14.40
2018-02-16T22:59:20.680Z,14.98
2018-02-16T23:01:48.261Z,15.07
2018-02-16T23:04:15.790Z,14.38
2018-02-16T23:06:43.320Z,15.15
2018-02-16T23:09:11.036Z,14.85
2018-02-16T23:11:38.605Z,14.95
2018-02-16T23:14:06.092Z,14.48
2018-02-16T23:16:34.388Z,15.32
2018-02-16T23:19:02.648Z,15.07
2018-02-16T23:21:30.898Z,15.23
2018-02-16T23:23:58.388Z,15.45
2018-02-16T23:26:27.398Z,14.87
2018-02-16T23:28:54.904Z,15.75
2018-02-16T23:31:22.439Z,14.93
2018-02-16T23:33:49.931Z,14.40
2018-02-16T23:36:17.431Z,15.05
2018-02-16T23:38:44.923Z,15.10
2018-02-16T23:41:12.455Z,14.18
2018-02-16T23:43:39.935Z,14.32
2018-02-16T23:46:08.245Z,14.00
2018-02-16T23:48:35.747Z,14.15
2018-02-16T23:51:03.232Z,14.23
2018-02-16T23:53:31.494Z,15.30
2018-02-16T23:56:00.564Z,14.18
2018-02-16T23:58:28.068Z,14.48
